Time;durP1;ratioP1;P1;durP2;ratioP2;P2;SDS_P1;SDS_P2;PMS_P1;PMS_P2;Temp;Humidity;BMP_temperature;BMP_pressure;BME280_temperature;BME280_humidity;BME280_pressure;Samples;Min_cycle;Max_cycle;Signal;HPM_P1;HPM_P2
2024/01/26 00:00:28;;;;;;;0.80;0.80;;;9.00;99.90;;;;;;5027097;28;20041;-67
2024/01/26 00:02:53;;;;;;;0.10;0.10;;;9.00;99.90;;;;;;5025963;28;20037;-67
2024/01/26 00:05:19;;;;;;;0.20;0.20;;;9.00;99.90;;;;;;5032193;28;20095;-67
2024/01/26 00:07:44;;;;;;;1.65;1.17;;;9.00;99.90;;;;;;5029904;28;20065;-67
2024/01/26 00:10:10;;;;;;;1.45;1.35;;;9.00;99.90;;;;;;5015048;28;20049;-67
2024/01/26 00:12:36;;;;;;;0.60;0.60;;;9.00;99.90;;;;;;5021424;28;20041;-67
2024/01/26 00:15:02;;;;;;;2.05;1.58;;;9.10;99.90;;;;;;5028464;28;20432;-67
2024/01/26 00:17:27;;;;;;;0.80;0.80;;;9.10;99.90;;;;;;5021677;28;20497;-67
2024/01/26 00:19:54;;;;;;;1.92;1.10;;;9.10;99.90;;;;;;5029407;28;20053;-67
2024/01/26 00:22:20;;;;;;;0.10;0.10;;;9.10;99.90;;;;;;5031523;28;20052;-67
2024/01/26 00:24:46;;;;;;;0.95;0.90;;;9.10;99.90;;;;;;5020210;28;20057;-67
2024/01/26 00:27:11;;;;;;;1.40;1.30;;;9.10;99.90;;;;;;5026168;28;20056;-67
2024/01/26 00:29:37;;;;;;;1.33;0.55;;;9.10;99.90;;;;;;5025692;28;20164;-67
2024/01/26 00:32:02;;;;;;;0.10;0.10;;;9.20;99.90;;;;;;5044792;28;20489;-67
2024/01/26 00:34:28;;;;;;;0.20;0.20;;;9.20;99.90;;;;;;5020799;28;20046;-67
2024/01/26 00:36:54;;;;;;;0.10;0.10;;;9.20;99.90;;;;;;5024821;28;20046;-67
2024/01/26 00:39:20;;;;;;;0.10;0.10;;;9.20;99.90;;;;;;5033013;28;20400;-67
2024/01/26 00:41:46;;;;;;;0.10;0.10;;;9.20;99.90;;;;;;5018338;28;20061;-67
2024/01/26 00:44:11;;;;;;;0.10;0.10;;;9.20;99.90;;;;;;5028603;28;20047;-67
2024/01/26 00:46:37;;;;;;;0.65;0.65;;;9.20;99.90;;;;;;5030652;28;20501;-67
2024/01/26 00:49:03;;;;;;;0.40;0.40;;;9.20;99.90;;;;;;5018031;28;20065;-67
2024/01/26 00:51:29;;;;;;;0.95;0.95;;;9.20;99.90;;;;;;5019886;28;20087;-67
2024/01/26 00:53:54;;;;;;;1.33;1.25;;;9.20;99.90;;;;;;5017523;28;20469;-67
2024/01/26 00:56:20;;;;;;;0.40;0.40;;;9.20;99.90;;;;;;5024384;28;20044;-68
2024/01/26 00:58:46;;;;;;;0.10;0.10;;;9.20;99.90;;;;;;5022421;28;20045;-68
2024/01/26 01:01:12;;;;;;;0.10;0.10;;;9.20;99.90;;;;;;5028280;28;20063;-68
2024/01/26 01:03:37;;;;;;;0.45;0.45;;;9.20;99.90;;;;;;5024211;28;20072;-68
2024/01/26 01:06:03;;;;;;;0.10;0.10;;;9.30;99.90;;;;;;5018989;28;20447;-68
2024/01/26 01:08:28;;;;;;;0.65;0.65;;;9.30;99.90;;;;;;5025832;28;20171;-68
2024/01/26 01:10:54;;;;;;;0.10;0.10;;;9.30;99.90;;;;;;5020579;28;20050;-68
2024/01/26 01:13:20;;;;;;;0.20;0.20;;;9.30;99.90;;;;;;5030331;28;20037;-68
2024/01/26 01:15:46;;;;;;;1.08;0.57;;;9.30;99.90;;;;;;5028774;28;20500;-69
2024/01/26 01:18:11;;;;;;;0.65;0.65;;;9.40;99.90;;;;;;5030532;28;20072;-68
2024/01/26 01:20:37;;;;;;;0.13;0.13;;;9.30;99.90;;;;;;5020910;28;20123;-69
2024/01/26 01:23:03;;;;;;;0.10;0.10;;;9.30;99.90;;;;;;5019517;28;20062;-68
2024/01/26 01:25:28;;;;;;;0.68;0.68;;;9.30;99.90;;;;;;5033082;28;20448;-68
2024/01/26 01:27:54;;;;;;;0.10;0.10;;;9.30;99.90;;;;;;5022128;28;20077;-68
2024/01/26 01:30:20;;;;;;;0.10;0.10;;;9.30;99.90;;;;;;5025432;28;20124;-68
2024/01/26 01:32:46;;;;;;;0.25;0.25;;;9.40;99.90;;;;;;5024872;28;20535;-68
2024/01/26 01:35:11;;;;;;;0.73;0.57;;;9.30;99.90;;;;;;5020275;28;20042;-68
2024/01/26 01:37:37;;;;;;;0.10;0.10;;;9.30;99.90;;;;;;5021183;28;20045;-68
2024/01/26 01:40:03;;;;;;;0.28;0.28;;;9.30;99.90;;;;;;5027211;28;20497;-68
2024/01/26 01:42:28;;;;;;;0.30;0.30;;;9.30;99.90;;;;;;5030910;28;20140;-69
2024/01/26 01:44:54;;;;;;;1.85;0.70;;;9.30;99.90;;;;;;5031221;28;20037;-68
2024/01/26 01:47:19;;;;;;;0.10;0.10;;;9.30;99.90;;;;;;5024900;28;20052;-68
2024/01/26 01:49:45;;;;;;;1.80;0.60;;;9.30;99.90;;;;;;5022652;28;20038;-68
2024/01/26 01:52:15;;;;;;;0.47;0.47;;;9.40;99.90;;;;;;5023888;28;20049;-68
2024/01/26 01:54:41;;;;;;;0.20;0.20;;;9.40;99.90;;;;;;5012482;28;20079;-68
2024/01/26 01:57:12;;;;;;;10.05;1.65;;;9.40;99.90;;;;;;5025373;28;20077;-68
2024/01/26 01:59:38;;;;;;;0.10;0.10;;;9.30;99.90;;;;;;5028867;28;20132;-69
2024/01/26 02:02:05;;;;;;;0.32;0.32;;;9.30;99.90;;;;;;5021399;28;20099;-68
2024/01/26 02:04:31;;;;;;;0.73;0.73;;;9.30;99.90;;;;;;5027826;28;20132;-68
2024/01/26 02:06:58;;;;;;;0.30;0.30;;;9.30;99.90;;;;;;5020311;28;20077;-68
2024/01/26 02:09:25;;;;;;;0.15;0.15;;;9.30;99.90;;;;;;5026043;28;20064;-68
2024/01/26 02:11:51;;;;;;;0.88;0.80;;;9.30;99.90;;;;;;5021381;28;20087;-68
2024/01/26 02:14:17;;;;;;;1.02;0.57;;;9.30;99.90;;;;;;5030778;28;20041;-68
2024/01/26 02:16:59;;;;;;;1.48;0.75;;;9.30;99.90;;;;;;5027675;28;20041;-68
2024/01/26 02:19:26;;;;;;;0.30;0.30;;;9.40;99.90;;;;;;5014844;28;20133;-68
2024/01/26 02:21:52;;;;;;;0.45;0.45;;;9.40;99.90;;;;;;5019112;28;20049;-68
2024/01/26 02:24:17;;;;;;;0.20;0.20;;;9.30;99.90;;;;;;5023131;28;20408;-68
2024/01/26 02:26:43;;;;;;;0.17;0.17;;;9.40;99.90;;;;;;5019175;28;20140;-68
2024/01/26 02:29:09;;;;;;;0.10;0.10;;;9.40;99.90;;;;;;5025196;28;20052;-68
2024/01/26 02:31:35;;;;;;;0.10;0.10;;;9.40;99.90;;;;;;5027990;28;20049;-68
2024/01/26 02:34:01;;;;;;;0.20;0.20;;;9.50;99.90;;;;;;5025501;28;20048;-68
2024/01/26 02:36:28;;;;;;;0.52;0.52;;;9.50;99.90;;;;;;5018977;28;20042;-68
2024/01/26 02:38:54;;;;;;;0.25;0.25;;;9.50;99.90;;;;;;5026947;28;20052;-68
2024/01/26 02:41:20;;;;;;;1.65;1.05;;;9.50;99.90;;;;;;5025545;28;20135;-68
2024/01/26 02:43:46;;;;;;;0.30;0.30;;;9.40;99.90;;;;;;5027180;28;20474;-68
2024/01/26 02:46:12;;;;;;;5.45;2.20;;;9.30;99.90;;;;;;5026286;28;20064;-68
2024/01/26 02:48:38;;;;;;;0.05;0.05;;;9.30;99.90;;;;;;5021343;28;20107;-68
2024/01/26 02:51:04;;;;;;;0.43;0.43;;;9.30;99.90;;;;;;5017800;28;20513;-68
2024/01/26 02:53:30;;;;;;;0.52;0.52;;;9.30;99.90;;;;;;5025337;28;20060;-68
2024/01/26 02:55:56;;;;;;;0.73;0.73;;;9.20;99.90;;;;;;5022391;28;20041;-68
2024/01/26 02:58:21;;;;;;;0.85;0.85;;;9.20;99.90;;;;;;5023099;28;20413;-68
2024/01/26 03:00:47;;;;;;;0.30;0.30;;;9.20;99.90;;;;;;5017854;28;20049;-68
2024/01/26 03:03:13;;;;;;;0.70;0.70;;;9.10;99.90;;;;;;5029996;28;20034;-68
2024/01/26 03:05:38;;;;;;;4.82;1.15;;;9.10;99.90;;;;;;5015276;28;20042;-68
2024/01/26 03:08:05;;;;;;;0.68;0.68;;;9.10;99.90;;;;;;5015948;28;20124;-68
2024/01/26 03:10:31;;;;;;;1.48;1.30;;;9.10;99.90;;;;;;5022528;28;20512;-68
2024/01/26 03:12:56;;;;;;;0.60;0.60;;;9.10;99.90;;;;;;5024869;28;20041;-68
2024/01/26 03:15:22;;;;;;;3.70;2.05;;;9.20;99.90;;;;;;5025827;28;20395;-68
2024/01/26 03:17:47;;;;;;;0.55;0.55;;;9.20;99.90;;;;;;5022342;28;20085;-68
2024/01/26 03:20:13;;;;;;;0.75;0.75;;;9.20;99.90;;;;;;5027948;28;20041;-68
2024/01/26 03:22:39;;;;;;;1.65;1.55;;;9.20;99.90;;;;;;5027795;28;20049;-68
2024/01/26 03:25:04;;;;;;;2.05;1.65;;;9.20;99.90;;;;;;5022711;28;20498;-68
2024/01/26 03:27:30;;;;;;;1.23;1.23;;;9.20;99.90;;;;;;5020883;28;20072;-68
2024/01/26 03:29:56;;;;;;;1.00;1.00;;;9.20;99.90;;;;;;5032488;28;20088;-68
2024/01/26 03:32:21;;;;;;;0.80;0.80;;;9.20;99.90;;;;;;5024919;28;20048;-68
2024/01/26 03:34:47;;;;;;;1.73;1.48;;;9.30;99.90;;;;;;5032945;28;20056;-68
2024/01/26 03:37:12;;;;;;;23.55;1.30;;;9.30;99.90;;;;;;5031529;28;20037;-68
2024/01/26 03:39:38;;;;;;;1.02;0.98;;;9.30;99.90;;;;;;5029850;28;20057;-68
2024/01/26 03:42:05;;;;;;;0.22;0.22;;;9.30;99.90;;;;;;5032087;28;20057;-68
2024/01/26 03:44:31;;;;;;;1.40;1.05;;;9.30;99.90;;;;;;5024090;28;20053;-68
2024/01/26 03:46:56;;;;;;;1.63;1.52;;;9.30;99.90;;;;;;5022175;28;20049;-68
2024/01/26 03:49:22;;;;;;;3.15;2.90;;;9.30;99.90;;;;;;5029849;28;20080;-68
2024/01/26 03:51:48;;;;;;;0.30;0.30;;;9.30;99.90;;;;;;5031012;28;20371;-68
2024/01/26 03:54:13;;;;;;;0.43;0.43;;;9.30;99.90;;;;;;5023704;28;20080;-68
2024/01/26 03:56:39;;;;;;;1.70;1.63;;;9.40;99.90;;;;;;5024796;28;20064;-68
2024/01/26 03:59:05;;;;;;;0.22;0.22;;;9.40;99.90;;;;;;5025634;28;20048;-68
2024/01/26 04:01:30;;;;;;;4.07;1.35;;;9.40;99.90;;;;;;5029390;28;20037;-68
2024/01/26 04:03:56;;;;;;;1.20;1.15;;;9.40;99.90;;;;;;5024782;28;20124;-68
2024/01/26 04:06:22;;;;;;;0.77;0.63;;;9.40;99.90;;;;;;5031159;28;20049;-68
2024/01/26 04:08:47;;;;;;;2.58;1.27;;;9.50;99.90;;;;;;5030288;28;20533;-68
2024/01/26 04:11:13;;;;;;;1.98;1.45;;;9.50;99.90;;;;;;5030529;28;20052;-68
2024/01/26 04:13:38;;;;;;;0.52;0.52;;;9.50;99.90;;;;;;5028314;28;20038;-68
2024/01/26 04:16:06;;;;;;;0.60;0.57;;;9.50;99.90;;;;;;5028053;28;20049;-68
2024/01/26 04:18:32;;;;;;;0.47;0.47;;;9.50;99.90;;;;;;5027453;28;20046;-68
2024/01/26 04:20:57;;;;;;;0.40;0.40;;;9.60;99.90;;;;;;5029248;28;20069;-68
2024/01/26 04:23:23;;;;;;;0.47;0.47;;;9.60;99.90;;;;;;5027040;28;20075;-68
2024/01/26 04:25:49;;;;;;;0.65;0.65;;;9.70;99.90;;;;;;5028149;28;20132;-68
2024/01/26 04:28:14;;;;;;;0.70;0.70;;;9.70;99.90;;;;;;5020823;28;20037;-68
2024/01/26 04:30:43;;;;;;;1.00;0.77;;;9.70;99.90;;;;;;5027027;28;20045;-68
2024/01/26 04:33:08;;;;;;;1.75;0.85;;;9.60;99.90;;;;;;5020704;28;20065;-68
2024/01/26 04:35:34;;;;;;;0.40;0.40;;;9.70;99.90;;;;;;5027658;28;20590;-68
2024/01/26 04:38:00;;;;;;;0.52;0.52;;;9.70;99.90;;;;;;5032032;28;20054;-68
2024/01/26 04:40:26;;;;;;;1.65;1.38;;;9.70;99.90;;;;;;5031193;28;20060;-68
2024/01/26 04:42:51;;;;;;;0.57;0.57;;;9.70;99.90;;;;;;5036583;28;20073;-69
2024/01/26 04:45:18;;;;;;;0.82;0.82;;;9.70;99.90;;;;;;5026859;28;20504;-69
2024/01/26 04:47:43;;;;;;;1.17;0.63;;;9.70;99.90;;;;;;5028271;28;20138;-69
2024/01/26 04:50:10;;;;;;;3.85;2.40;;;9.70;99.90;;;;;;5030383;28;20042;-69
2024/01/26 04:52:35;;;;;;;0.10;0.10;;;9.70;99.90;;;;;;5021069;28;20397;-69
2024/01/26 04:55:01;;;;;;;0.40;0.40;;;9.80;99.90;;;;;;5029163;28;20038;-68
2024/01/26 04:57:26;;;;;;;0.30;0.30;;;9.80;99.90;;;;;;5015730;28;20128;-69
2024/01/26 04:59:52;;;;;;;0.65;0.65;;;9.80;99.90;;;;;;5028963;28;20051;-69
2024/01/26 05:02:18;;;;;;;4.32;2.58;;;9.80;99.90;;;;;;5030645;28;20041;-69
2024/01/26 05:04:43;;;;;;;0.20;0.20;;;9.80;99.90;;;;;;5025850;28;20468;-70
2024/01/26 05:07:09;;;;;;;1.45;1.35;;;9.80;99.90;;;;;;5024716;28;20084;-70
2024/01/26 05:09:35;;;;;;;0.70;0.70;;;9.90;99.90;;;;;;5029754;28;20045;-70
2024/01/26 05:12:01;;;;;;;0.22;0.22;;;10.00;99.90;;;;;;5028190;28;20048;-70
2024/01/26 05:14:26;;;;;;;2.97;1.15;;;10.00;99.90;;;;;;5025406;28;20049;-70
2024/01/26 05:16:52;;;;;;;0.80;0.80;;;10.10;99.90;;;;;;5029941;28;20425;-70
2024/01/26 05:19:18;;;;;;;2.60;1.08;;;10.10;99.90;;;;;;5021331;28;20080;-70
2024/01/26 05:21:43;;;;;;;1.10;1.10;;;10.20;99.90;;;;;;5032890;28;20088;-70
2024/01/26 05:24:09;;;;;;;5.00;1.55;;;10.20;99.90;;;;;;5031392;28;20026;-69
2024/01/26 05:26:38;;;;;;;1.70;1.60;;;10.20;99.90;;;;;;5026049;28;20054;-70
2024/01/26 05:29:04;;;;;;;0.43;0.43;;;10.20;99.90;;;;;;5018337;28;20034;-73
2024/01/26 05:31:32;;;;;;;2.15;1.15;;;10.30;99.90;;;;;;5026745;28;20052;-74
2024/01/26 05:33:58;;;;;;;0.17;0.17;;;10.30;99.90;;;;;;5025641;28;20053;-74
2024/01/26 05:36:24;;;;;;;2.90;1.75;;;10.30;99.90;;;;;;5025432;28;20049;-74
2024/01/26 05:38:50;;;;;;;0.68;0.68;;;10.30;99.90;;;;;;5021166;28;20133;-74
2024/01/26 05:41:15;;;;;;;0.10;0.10;;;10.30;99.90;;;;;;5028647;28;20493;-74
2024/01/26 05:43:41;;;;;;;0.68;0.68;;;10.40;99.90;;;;;;5030193;28;20045;-75
2024/01/26 05:46:06;;;;;;;0.60;0.25;;;10.40;99.90;;;;;;5021016;28;20041;-75
2024/01/26 05:48:32;;;;;;;3.05;0.63;;;10.40;99.90;;;;;;5027472;28;20083;-75
2024/01/26 05:50:58;;;;;;;0.95;0.95;;;10.40;99.90;;;;;;5029393;28;20056;-74
2024/01/26 05:53:23;;;;;;;0.10;0.10;;;10.40;99.90;;;;;;5029735;28;20658;-75
2024/01/26 05:55:49;;;;;;;0.57;0.57;;;10.40;99.90;;;;;;5022013;28;20477;-73
2024/01/26 05:58:16;;;;;;;0.25;0.25;;;10.50;99.90;;;;;;5024461;28;20555;-75
2024/01/26 06:00:42;;;;;;;0.50;0.50;;;10.50;99.90;;;;;;5015998;28;20058;-76
2024/01/26 06:03:08;;;;;;;0.70;0.70;;;10.50;99.90;;;;;;5042311;28;20106;-76
2024/01/26 06:05:33;;;;;;;0.80;0.80;;;10.50;99.90;;;;;;5028300;28;20057;-77
2024/01/26 06:07:59;;;;;;;0.30;0.30;;;10.50;99.90;;;;;;5024477;28;20048;-76
2024/01/26 06:10:25;;;;;;;0.52;0.52;;;10.50;99.90;;;;;;5022963;28;20037;-76
2024/01/26 06:12:50;;;;;;;0.65;0.65;;;10.60;99.90;;;;;;5027024;28;20052;-76
2024/01/26 06:15:16;;;;;;;2.35;2.20;;;10.50;99.90;;;;;;5024495;28;20072;-77
2024/01/26 06:17:42;;;;;;;0.50;0.50;;;10.50;99.90;;;;;;5027295;28;20132;-77
2024/01/26 06:20:08;;;;;;;0.57;0.57;;;10.50;99.90;;;;;;5024223;28;20121;-77
2024/01/26 06:22:34;;;;;;;0.10;0.10;;;10.50;99.90;;;;;;5018247;28;20093;-77
2024/01/26 06:24:59;;;;;;;1.05;1.05;;;10.50;99.90;;;;;;5022890;28;20517;-78
2024/01/26 06:27:25;;;;;;;0.30;0.30;;;10.50;99.90;;;;;;5040189;28;20041;-77
2024/01/26 06:29:51;;;;;;;0.20;0.20;;;10.50;99.90;;;;;;5026780;28;20106;-78
2024/01/26 06:32:18;;;;;;;1.42;1.25;;;10.50;99.90;;;;;;5038451;28;20038;-80
2024/01/26 06:34:45;;;;;;;0.73;0.73;;;10.50;99.90;;;;;;5028140;28;20508;-80
2024/01/26 06:37:11;;;;;;;0.28;0.17;;;10.50;99.90;;;;;;5027541;28;20044;-78
2024/01/26 06:39:37;;;;;;;0.85;0.85;;;10.40;99.90;;;;;;5020479;28;20062;-78
2024/01/26 06:42:03;;;;;;;0.43;0.43;;;10.40;99.90;;;;;;5020781;28;20072;-77
2024/01/26 06:44:28;;;;;;;0.10;0.10;;;10.40;99.90;;;;;;5026864;28;20025;-78
2024/01/26 06:46:54;;;;;;;1.13;0.98;;;10.40;99.90;;;;;;5027340;28;20060;-77
2024/01/26 06:49:19;;;;;;;0.43;0.43;;;10.40;99.90;;;;;;5016128;28;20068;-77
2024/01/26 06:51:45;;;;;;;2.20;1.65;;;10.40;99.90;;;;;;5022698;28;20052;-76
2024/01/26 06:54:11;;;;;;;0.90;0.90;;;10.30;99.90;;;;;;5029778;28;20045;-76
2024/01/26 06:56:36;;;;;;;0.10;0.10;;;10.30;99.90;;;;;;5024582;28;20041;-75
2024/01/26 06:59:02;;;;;;;0.35;0.35;;;10.30;99.90;;;;;;5018494;28;20042;-74
2024/01/26 07:01:28;;;;;;;0.50;0.50;;;10.30;99.90;;;;;;5038719;28;20046;-74
2024/01/26 07:03:53;;;;;;;0.20;0.20;;;10.30;99.90;;;;;;5022810;28;20496;-73
2024/01/26 07:06:19;;;;;;;0.15;0.15;;;10.30;99.90;;;;;;5026726;28;20053;-73
2024/01/26 07:08:45;;;;;;;0.80;0.80;;;10.30;99.90;;;;;;5027203;28;20045;-73
2024/01/26 07:11:11;;;;;;;1.33;1.23;;;10.30;99.90;;;;;;5026286;28;20037;-73
2024/01/26 07:13:36;;;;;;;2.28;1.25;;;10.20;99.90;;;;;;5020773;28;20136;-73
2024/01/26 07:16:02;;;;;;;0.80;0.80;;;10.30;99.90;;;;;;5021752;28;20397;-72
2024/01/26 07:18:27;;;;;;;0.40;0.40;;;10.20;99.90;;;;;;5024107;28;20120;-72
2024/01/26 07:20:53;;;;;;;4.20;1.75;;;10.20;99.90;;;;;;5028037;28;20103;-72
2024/01/26 07:23:18;;;;;;;0.93;0.90;;;10.20;99.90;;;;;;5020520;28;20389;-70
2024/01/26 07:25:44;;;;;;;0.30;0.30;;;10.20;99.90;;;;;;5022172;28;20481;-72
2024/01/26 07:28:10;;;;;;;1.85;1.05;;;10.20;99.90;;;;;;5029471;28;20405;-72
2024/01/26 07:30:35;;;;;;;0.85;0.85;;;10.30;99.90;;;;;;5021880;28;20033;-72
2024/01/26 07:33:01;;;;;;;0.10;0.10;;;10.40;99.90;;;;;;5023525;28;20042;-72
2024/01/26 07:35:26;;;;;;;0.20;0.20;;;10.40;99.90;;;;;;5023696;28;20095;-72
2024/01/26 07:37:52;;;;;;;0.57;0.50;;;10.40;99.90;;;;;;5027315;28;20049;-72
2024/01/26 07:40:18;;;;;;;0.10;0.10;;;10.40;99.90;;;;;;5025280;28;20088;-72
2024/01/26 07:42:43;;;;;;;0.10;0.10;;;10.40;99.90;;;;;;5022881;28;20168;-72
2024/01/26 07:45:09;;;;;;;0.10;0.10;;;10.40;99.90;;;;;;5025720;28;21624;-72
2024/01/26 07:47:35;;;;;;;0.73;0.73;;;10.50;99.90;;;;;;5020830;28;20092;-72
2024/01/26 07:50:02;;;;;;;0.38;0.38;;;10.50;99.90;;;;;;5025849;28;20044;-72
2024/01/26 07:52:28;;;;;;;0.20;0.20;;;10.50;99.90;;;;;;5021696;28;20574;-72
2024/01/26 07:54:54;;;;;;;0.38;0.38;;;10.50;99.90;;;;;;5024002;28;20061;-72
2024/01/26 07:57:21;;;;;;;0.08;0.08;;;10.50;99.90;;;;;;5020816;28;20052;-72
2024/01/26 07:59:48;;;;;;;1.45;0.80;;;10.50;99.90;;;;;;5018312;28;20036;-72
2024/01/26 08:02:14;;;;;;;0.15;0.15;;;10.50;99.90;;;;;;5019699;28;20527;-72
2024/01/26 08:04:39;;;;;;;0.68;0.68;;;10.60;99.90;;;;;;5026240;28;20045;-72
2024/01/26 08:07:05;;;;;;;0.60;0.60;;;10.60;99.90;;;;;;5020476;28;20128;-72
2024/01/26 08:09:30;;;;;;;0.30;0.30;;;10.60;99.90;;;;;;5022633;28;20136;-72
2024/01/26 08:11:56;;;;;;;2.42;1.98;;;10.50;99.90;;;;;;5025997;28;20129;-72
2024/01/26 08:14:22;;;;;;;0.30;0.30;;;10.50;99.90;;;;;;5029663;28;20140;-72
2024/01/26 08:16:47;;;;;;;0.10;0.10;;;10.50;99.90;;;;;;5029298;28;20041;-72
2024/01/26 08:19:13;;;;;;;0.40;0.40;;;10.50;99.90;;;;;;5022505;28;20057;-72
2024/01/26 08:21:38;;;;;;;32.28;1.52;;;10.50;99.90;;;;;;5020161;28;20133;-72
2024/01/26 08:24:04;;;;;;;0.73;0.35;;;10.50;99.90;;;;;;5026084;28;20045;-71
2024/01/26 08:26:30;;;;;;;0.10;0.10;;;10.50;99.90;;;;;;5030139;28;20444;-71
2024/01/26 08:28:55;;;;;;;0.43;0.43;;;10.50;99.90;;;;;;5025244;28;20435;-71
2024/01/26 08:31:21;;;;;;;0.50;0.40;;;10.50;99.90;;;;;;5026713;28;20087;-71
2024/01/26 08:33:47;;;;;;;0.90;0.75;;;10.50;99.90;;;;;;5030639;28;20087;-71
2024/01/26 08:36:13;;;;;;;0.10;0.10;;;10.50;99.90;;;;;;5026249;28;20107;-71
2024/01/26 08:38:38;;;;;;;1.33;1.23;;;10.50;99.90;;;;;;5019030;28;20042;-71
2024/01/26 08:41:07;;;;;;;0.43;0.40;;;10.50;99.90;;;;;;5024688;28;20045;-72
2024/01/26 08:43:33;;;;;;;0.20;0.20;;;10.50;99.90;;;;;;5025539;28;20128;-75
2024/01/26 08:45:59;;;;;;;5.28;1.55;;;10.50;99.90;;;;;;5029481;28;20477;-76
2024/01/26 08:48:24;;;;;;;0.85;0.85;;;10.10;99.90;;;;;;5025811;28;20054;-76
2024/01/26 08:50:50;;;;;;;0.10;0.10;;;9.90;99.90;;;;;;5027402;28;20045;-76
2024/01/26 08:53:16;;;;;;;0.05;0.05;;;9.80;99.90;;;;;;5030411;28;20077;-76
2024/01/26 08:55:42;;;;;;;0.10;0.10;;;9.60;99.90;;;;;;5020622;28;20791;-76
2024/01/26 08:58:07;;;;;;;0.05;0.05;;;9.50;99.90;;;;;;5025475;28;20045;-74
2024/01/26 09:00:34;;;;;;;0.73;0.73;;;9.40;99.90;;;;;;5030213;28;20039;-74
2024/01/26 09:02:59;;;;;;;0.10;0.10;;;9.40;99.90;;;;;;5017034;28;20504;-73
2024/01/26 09:05:25;;;;;;;1.05;1.05;;;9.30;99.90;;;;;;5021995;28;20029;-73
2024/01/26 09:07:51;;;;;;;1.52;1.42;;;9.30;99.90;;;;;;5019972;28;20500;-72
2024/01/26 09:10:17;;;;;;;1.55;1.00;;;9.30;99.90;;;;;;5019899;28;20041;-72
2024/01/26 09:12:43;;;;;;;0.10;0.10;;;9.20;99.90;;;;;;5027166;28;20486;-71
2024/01/26 09:15:09;;;;;;;0.52;0.52;;;9.20;99.90;;;;;;5018767;28;20091;-72
2024/01/26 09:17:34;;;;;;;0.03;0.03;;;9.20;99.90;;;;;;5025184;28;20076;-72
2024/01/26 09:20:00;;;;;;;0.10;0.10;;;9.20;99.90;;;;;;5023588;28;20037;-71
2024/01/26 09:22:27;;;;;;;0.40;0.13;;;9.20;99.90;;;;;;5028014;28;20045;-71
2024/01/26 09:24:53;;;;;;;1.65;0.75;;;9.10;99.90;;;;;;5022458;28;20440;-72
2024/01/26 09:27:20;;;;;;;0.10;0.10;;;9.10;99.90;;;;;;5023681;28;20060;-72
2024/01/26 09:29:46;;;;;;;0.10;0.10;;;9.00;99.90;;;;;;5038153;28;20060;-72
2024/01/26 09:32:11;;;;;;;0.35;0.32;;;9.00;99.90;;;;;;5028130;28;20045;-72
2024/01/26 09:34:37;;;;;;;2.53;1.77;;;9.00;99.90;;;;;;5025046;28;20123;-73
2024/01/26 09:37:02;;;;;;;0.38;0.38;;;9.00;99.90;;;;;;5029902;28;20853;-71
2024/01/26 09:39:28;;;;;;;0.22;0.22;;;8.90;99.90;;;;;;5026009;28;20058;-71
2024/01/26 09:41:55;;;;;;;0.43;0.43;;;8.90;99.90;;;;;;5030016;28;20401;-71
2024/01/26 09:44:21;;;;;;;0.10;0.10;;;8.90;99.90;;;;;;5024857;28;20042;-71
2024/01/26 09:46:47;;;;;;;0.17;0.15;;;8.90;99.90;;;;;;5023533;28;20049;-71
2024/01/26 09:49:14;;;;;;;0.80;0.77;;;8.90;99.90;;;;;;5031172;28;20040;-71
2024/01/26 09:51:40;;;;;;;0.82;0.80;;;8.90;99.90;;;;;;5020631;28;20060;-71
2024/01/26 09:54:07;;;;;;;11.50;1.23;;;8.90;99.90;;;;;;5029670;28;20385;-71
2024/01/26 09:56:36;;;;;;;0.10;0.10;;;8.90;99.90;;;;;;5023532;28;20485;-71
2024/01/26 09:59:03;;;;;;;0.63;0.63;;;8.90;99.90;;;;;;5020907;28;20045;-71
2024/01/26 10:01:32;;;;;;;0.10;0.10;;;9.00;99.90;;;;;;5021336;28;20048;-70
2024/01/26 10:03:58;;;;;;;0.10;0.10;;;9.00;99.90;;;;;;5020650;28;20111;-71
2024/01/26 10:06:24;;;;;;;3.33;2.30;;;9.10;99.90;;;;;;5020422;28;20085;-71
2024/01/26 10:08:50;;;;;;;8.68;2.00;;;9.00;99.90;;;;;;5043864;28;20049;-71
2024/01/26 10:11:16;;;;;;;0.20;0.20;;;9.10;99.90;;;;;;5030306;28;20559;-71
2024/01/26 10:13:42;;;;;;;0.52;0.52;;;9.00;99.90;;;;;;5024726;28;20052;-71
2024/01/26 10:16:09;;;;;;;0.10;0.10;;;9.00;99.90;;;;;;5021060;28;20128;-71
2024/01/26 10:18:43;;;;;;;0.20;0.20;;;9.00;99.90;;;;;;5023482;28;20389;-72
2024/01/26 10:21:10;;;;;;;0.00;0.00;;;8.90;99.90;;;;;;5025972;28;20123;-71
2024/01/26 10:23:36;;;;;;;0.70;0.70;;;8.90;99.90;;;;;;5032260;28;20149;-70
2024/01/26 10:26:01;;;;;;;0.08;0.08;;;8.90;99.90;;;;;;5027613;28;20117;-70
2024/01/26 10:28:27;;;;;;;0.30;0.30;;;8.90;99.90;;;;;;5017277;28;20107;-70
2024/01/26 10:30:52;;;;;;;0.10;0.10;;;9.00;99.90;;;;;;5023121;28;20507;-70
2024/01/26 10:33:22;;;;;;;0.22;0.22;;;9.10;99.90;;;;;;5015950;28;20065;-70
2024/01/26 10:35:50;;;;;;;0.10;0.10;;;9.20;99.90;;;;;;5024696;28;20042;-70
2024/01/26 10:38:16;;;;;;;0.10;0.10;;;9.20;99.90;;;;;;5016810;28;20053;-70
2024/01/26 10:40:45;;;;;;;0.43;0.43;;;9.20;99.90;;;;;;5023614;28;20751;-70
2024/01/26 10:43:17;;;;;;;0.10;0.10;;;9.30;99.90;;;;;;5021427;28;20045;-70
2024/01/26 10:45:43;;;;;;;3.13;2.83;;;9.30;99.90;;;;;;5027362;28;20072;-70
2024/01/26 10:48:10;;;;;;;0.75;0.75;;;9.30;99.90;;;;;;5016368;28;20050;-70
2024/01/26 10:50:36;;;;;;;0.00;0.00;;;9.30;99.90;;;;;;5040407;28;20068;-70
2024/01/26 10:53:05;;;;;;;9.18;1.60;;;9.40;99.90;;;;;;5023132;28;20049;-69
2024/01/26 10:55:30;;;;;;;0.45;0.45;;;9.40;99.90;;;;;;5025379;28;20045;-70
2024/01/26 10:57:56;;;;;;;1.00;1.00;;;9.50;99.90;;;;;;5018302;28;20397;-70
2024/01/26 11:00:22;;;;;;;0.10;0.10;;;9.50;99.90;;;;;;5022122;28;20405;-70
2024/01/26 11:02:48;;;;;;;0.10;0.10;;;9.50;99.90;;;;;;5026241;28;20041;-71
2024/01/26 11:05:14;;;;;;;0.70;0.70;;;9.50;99.90;;;;;;5023545;28;20048;-69
2024/01/26 11:07:41;;;;;;;0.25;0.25;;;9.50;99.90;;;;;;5025809;28;20378;-68
2024/01/26 11:10:28;;;;;;;0.20;0.20;;;9.40;99.90;;;;;;5022130;28;20042;-68
2024/01/26 11:13:21;;;;;;;0.08;0.08;;;9.30;99.90;;;;;;5026632;28;20620;-68
2024/01/26 11:15:47;;;;;;;1.70;1.23;;;9.30;99.90;;;;;;5020036;28;20053;-70
2024/01/26 11:18:24;;;;;;;0.52;0.52;;;9.20;99.90;;;;;;5024011;28;20038;-71
2024/01/26 11:20:49;;;;;;;0.25;0.25;;;9.20;99.90;;;;;;5021146;28;20401;-69
2024/01/26 11:23:16;;;;;;;0.10;0.10;;;9.20;99.90;;;;;;5020815;28;20042;-68
2024/01/26 11:25:44;;;;;;;3.15;2.65;;;9.10;99.90;;;;;;5019320;28;20084;-69
2024/01/26 11:28:11;;;;;;;0.10;0.10;;;9.00;99.90;;;;;;5019893;28;20812;-69
2024/01/26 11:30:39;;;;;;;0.20;0.20;;;9.00;99.90;;;;;;5018855;28;20053;-69
2024/01/26 11:33:18;;;;;;;0.10;0.10;;;9.10;99.90;;;;;;5022920;28;20040;-69
2024/01/26 11:35:45;;;;;;;0.30;0.30;;;9.10;99.90;;;;;;5021329;28;20447;-69
2024/01/26 11:38:11;;;;;;;0.50;0.50;;;9.00;99.90;;;;;;5023648;28;20049;-69
2024/01/26 11:40:37;;;;;;;0.50;0.50;;;8.90;99.90;;;;;;5028345;28;21550;-69
2024/01/26 11:43:03;;;;;;;0.50;0.50;;;8.80;99.90;;;;;;5023301;28;20110;-69
2024/01/26 11:45:40;;;;;;;0.10;0.10;;;8.90;99.90;;;;;;5021035;28;20045;-69
2024/01/26 11:48:09;;;;;;;0.38;0.38;;;8.80;99.90;;;;;;5024390;28;20046;-69
2024/01/26 11:50:41;;;;;;;3.97;0.82;;;8.80;99.90;;;;;;5030729;28;20446;-69
2024/01/26 11:53:08;;;;;;;5.95;3.25;;;8.80;99.90;;;;;;5023575;28;20077;-69
2024/01/26 11:55:33;;;;;;;0.10;0.10;;;8.90;99.90;;;;;;5026345;28;20041;-69
2024/01/26 11:57:59;;;;;;;1.27;1.17;;;9.00;99.90;;;;;;5031026;28;20045;-69
2024/01/26 12:00:28;;;;;;;2.10;1.90;;;9.20;99.90;;;;;;5047674;28;20045;-69
2024/01/26 12:02:53;;;;;;;0.10;0.10;;;9.40;99.90;;;;;;5026923;28;20124;-69
2024/01/26 12:05:19;;;;;;;0.40;0.40;;;9.30;99.90;;;;;;5029671;28;20121;-69
2024/01/26 12:07:45;;;;;;;0.00;0.00;;;9.30;99.90;;;;;;5018734;28;20042;-69
2024/01/26 12:10:14;;;;;;;0.73;0.73;;;9.30;99.90;;;;;;5021231;28;20049;-69
2024/01/26 12:12:41;;;;;;;0.20;0.20;;;9.20;99.90;;;;;;5030009;28;20408;-69
2024/01/26 12:15:08;;;;;;;2.08;1.23;;;8.90;99.90;;;;;;5028214;28;20425;-69
2024/01/26 12:17:34;;;;;;;0.10;0.10;;;8.70;99.90;;;;;;5026330;28;20057;-69
2024/01/26 12:20:00;;;;;;;0.77;0.77;;;8.50;99.90;;;;;;5018725;28;20037;-69
2024/01/26 12:22:26;;;;;;;4.13;1.35;;;8.40;99.90;;;;;;5025190;28;20409;-70
2024/01/26 12:24:52;;;;;;;0.25;0.25;;;8.40;99.90;;;;;;5021950;28;20385;-71
2024/01/26 12:27:17;;;;;;;0.10;0.10;;;8.30;99.90;;;;;;5012990;28;20045;-70
2024/01/26 12:29:46;;;;;;;0.10;0.10;;;8.40;99.90;;;;;;5021185;28;20114;-70
2024/01/26 12:32:13;;;;;;;1.20;1.17;;;8.30;99.90;;;;;;5023764;28;20393;-70
2024/01/26 12:34:40;;;;;;;0.38;0.38;;;8.50;99.90;;;;;;5029381;28;20046;-70
2024/01/26 12:37:08;;;;;;;0.30;0.30;;;8.70;99.90;;;;;;5025359;28;20045;-71
2024/01/26 12:39:34;;;;;;;0.00;0.00;;;9.00;99.90;;;;;;5032546;28;20041;-71
2024/01/26 12:41:59;;;;;;;0.10;0.10;;;9.00;99.90;;;;;;5023726;28;20065;-70
2024/01/26 12:44:32;;;;;;;0.00;0.00;;;9.10;99.90;;;;;;5023751;28;20052;-69
2024/01/26 12:46:59;;;;;;;1.10;1.02;;;9.00;99.90;;;;;;5027116;28;20053;-69